Home > Products > Valid Products > TAF

000
FTUS41 KBTV 291739
TAFMPV
TAF
KMPV 291739Z 2918/3018 16008KT P6SM FEW020 SCT080
     FM292000 17008KT P6SM VCSH BKN090
     FM300200 17006KT P6SM OVC025
     FM300500 16005KT P6SM VCSH OVC020
     FM301000 16004KT P6SM OVC035=



000
FTUS41 KBTV 291739
TAFMSS
TAF
KMSS 291739Z 2918/3018 21007KT P6SM FEW150
     FM301000 22009KT P6SM BKN060
     FM301300 24013G24KT P6SM SCT200=



000
FTUS41 KBTV 291739
TAFSLK
TAF
KSLK 291739Z 2918/3018 21008KT P6SM VCSH FEW060 BKN100
      TEMPO 2918/2921 4SM TS BKN040CB
     FM300000 22005KT P6SM OVC090
     FM300600 21006KT P6SM VCSH BKN080
     FM301500 22010G19KT P6SM VCSH BKN120=



000
FTUS41 KBTV 291130
TAFMSS
TAF
KMSS 291130Z 2912/3012 06008KT P6SM FEW150
     FM291700 22010KT P6SM VCSH SCT200
     FM300000 21006KT P6SM VCSH BKN200
     FM301000 22009KT P6SM BKN120=



000
FTUS41 KBTV 281720
TAFSLK
TAF
KSLK 281720Z 2818/2918 26004KT P6SM SCT070
     FM282000 00000KT P6SM SCT070
     FM290500 00000KT 3SM BR BKN250
     FM291100 22006KT P6SM BKN150=



000
FTUS41 KBTV 281720
TAFBTV
TAF
KBTV 281720Z 2818/2918 VRB05KT P6SM FEW050 SCT150
     FM291000 14004KT P6SM SCT250
     FM291400 18008KT P6SM SCT200=



000
FTUS41 KBTV 281720
TAFMPV
TAF
KMPV 281720Z 2818/2918 35004KT P6SM FEW040 FEW090
     FM290900 00000KT 3SM BR BKN140
     FM291100 VRB03KT P6SM BKN120=



000
FTUS41 KBTV 281141
TAFBTV
TAF
KBTV 281141Z 2812/2912 VRB03KT P6SM SCT110
     FM290100 00000KT P6SM SCT200=



000
FTUS41 KBTV 281141
TAFMPV
TAF
KMPV 281141Z 2812/2912 00000KT P6SM SCT100
     FM282300 VRB03KT P6SM SCT150=



000
FTUS41 KBTV 281141
TAFMSS
TAF
KMSS 281141Z 2812/2912 24004KT P6SM SCT200
     FM290000 00000KT P6SM SCT200=



000
FTUS41 KBTV 281141
TAFSLK
TAF
KSLK 281141Z 2812/2912 00000KT P6SM SCT080
     FM290100 00000KT P6SM SCT200=



000
FTUS41 KBTV 280533
TAFMSS
TAF
KMSS 280533Z 2806/2906 24004KT P6SM SCT200
     FM281300 VRB04KT P6SM BKN140
     FM290000 00000KT P6SM SCT200=



000
FTUS41 KBTV 280533
TAFBTV
TAF
KBTV 280533Z 2806/2906 00000KT P6SM SCT060
     FM281000 VRB03KT P6SM BKN110
     FM290100 00000KT P6SM SCT200=



000
FTUS41 KBTV 280533
TAFSLK
TAF
KSLK 280533Z 2806/2906 00000KT 2SM BR SCT200
     FM281200 00000KT P6SM BKN080
     FM290100 00000KT P6SM SCT200=



000
FTUS41 KBTV 280533
TAFMPV
TAF
KMPV 280533Z 2806/2906 23004KT P6SM SCT200
     FM281200 00000KT P6SM BKN100
     FM282300 VRB03KT P6SM SCT150=



000
FTUS41 KBTV 271126
TAFSLK
TAF
KSLK 271126Z 2712/2812 00000KT P6SM SCT200
     FM271500 22006KT P6SM SCT045
     FM272000 25006KT P6SM VCSH BKN050
     FM280200 VRB03KT P6SM SCT050
     FM280600 00000KT 3SM BR BKN010=



000
FTUS41 KBTV 271126
TAFMPV
TAF
KMPV 271126Z 2712/2812 VRB03KT P6SM SCT150
     FM272200 20006KT P6SM VCSH BKN050
     FM280300 VRB03KT P6SM SCT050
     FM280700 00000KT 4SM BR BKN010=



000
FTUS41 KBTV 271126
TAFMSS
TAF
KMSS 271126Z 2712/2812 00000KT P6SM BKN060
     FM271400 22006KT P6SM SCT150
     FM280800 VRB03KT 5SM BR BKN020=



000
FTUS41 KBTV 271126
TAFBTV
TAF
KBTV 271126Z 2712/2812 18006KT P6SM SCT150
     FM272100 19008KT P6SM VCSH BKN050
     FM280300 VRB04KT P6SM SCT050
     FM280800 VRB03KT P6SM BKN020=



000
FTUS41 KBTV 270640 AAA
TAFBTV
TAF AMD
KBTV 270640Z 2707/2806 19005KT P6SM BKN100
      TEMPO 2707/2709 5SM -SHRA BKN050
     FM271200 18009KT P6SM SCT120
     FM272100 19008KT P6SM VCSH BKN050
     FM280300 VRB04KT P6SM SCT050=



000
FTUS41 KBTV 262338
TAFMPV
TAF
KMPV 262338Z 2700/2724 VRB03KT P6SM VCSH BKN100
     FM270600 00000KT 6SM BR BKN035
     FM271100 17004KT P6SM BKN040
     FM271400 17005KT P6SM SCT120
     FM272200 20006KT P6SM VCSH BKN060=



000
FTUS41 KBTV 262338
TAFMSS
TAF
KMSS 262338Z 2700/2724 06007KT P6SM BKN120
     FM271400 22006KT P6SM BKN120
     FM272100 24008KT P6SM SCT090=



000
FTUS41 KBTV 262338
TAFSLK
TAF
KSLK 262338Z 2700/2724 05007KT P6SM VCSH OVC060
     FM270400 00000KT P6SM BKN120
     FM271300 22006KT P6SM SCT045
     FM272000 25006KT P6SM VCSH BKN050=



000
FTUS41 KBTV 262338
TAFBTV
TAF
KBTV 262338Z 2700/2724 09004KT P6SM BKN100
     FM270400 15004KT P6SM BKN090
     FM271200 18009KT P6SM SCT120
     FM271700 18008KT P6SM SCT060
     FM272100 19008KT P6SM VCSH BKN060=



    US Dept of Commerce
    National Oceanic and Atmospheric Administration
    National Weather Service
    1325 East West Highway
    Silver Spring, MD 20910
    Page Author: NWS Internet Services Team
Disclaimer
Information Quality
Credits
Glossary
Privacy Policy
Freedom of Information Act (FOIA)
About Us
Career Opportunities